Aérodrome :
LOGIN :

S'inscrire | Disclaimer

   EN    FR    IT 

 










Légende :    VFR   VFR Marginal   IFR   IFR Intensif   IFR Très Intensif
Visi : 
Plafond : 
>= 8 km
>= 3000ft
5 à 8 km
1000 à 3000 ft
1500m à 5 km
500 à 1000 ft
800 à 1500m
200 à 500 ft
< 800m
< 200 ft
Symboles :   Orages  Brouillard  Fortes neiges  Fortes précipitations  Vent > 20 kt
SIGMETs :   Divers  Orages  Givrage  Turbulence  Onde Orograph.  Cendres Volcan.







- Altitude de l'aérodrome : 33 ft
- Code IATA : MHZ


EGUN - RAF Mildenhall

DERNIER METAR :
  • 221241Z 22010KT 9999 OVC016 11/11 A3032 RMK AO2A SLP271 WND DATA ESTMD $

METARs EXPIRÉS :
  • 221156Z 23010KT 9999 OVC016 11/11 A3033 RMK AO2A SLP274 WND DATA ESTMD T01080108 10109 20097 57008 $
  • 221026Z AUTO M 9999 OVC014 10/10 A3035 RMK AO2 SLP281 $

TAF TAF EGUN
Valide du 22 à 12h jusqu'au 23 à 18h UTC


221202Z 2212/2318 20012G20KT 9999 BKN015 QNH3030INS
BECMG 2217/2218 28009KT 9999 BKN020 QNH3031INS
BECMG 2304/2305 34012KT 9999 BKN015 QNH3043INS
BECMG 2307/2308 35010KT 9999 SCT020 QNH3052INS TX12/2212Z TN07/2306Z
Pas de NOTAMs connus pour ce terrain.
1 SIGMET publié pour la FIR London (EGTT) :
 
Onde orographique forte
EGTT SIGMET 01 VALID 221100/221500 EGRR
EGTT LONDON FIR SEV MTW FCST WI N5345 W00044 - N5224 W00359 - N5318 W00402 - N5350 W00301 - N5500 W00331 - N5500 W00103 - N5345 W00044 FL030/150 STNR NC=



MET'MAP, la Météo Aéronautique d'un coup d'oeil ! - Copyright ORBIFLY Décembre 2007 - Disclaimer

ORBIFLY MET'MAP TEAM :

Programmation & Développement : Alexandra Zaïnal
Conception & Développement : Baudouin d'Aumeries
Co-Programmation & Développement : Marc-Olivier Méhu
Soutien technique & logistique : Manuel Goepfert

Contact : metmap@orbifly.com




SOURCES & CREDITS :

   NOAA